Aviation Digital Data Service (ADDS)

Output produced by METARs form (1033 UTC 17 June 2019)
found at http://www.aviationweather.gov/metar/data/
 
METAR text: ROIG 171000Z 20007KT 9999 FEW006 BKN160 28/27 Q1010
Conditions at: ROIG (ISHIGAKIJIMA ISL, JP) observed 1000 UTC 17 June 2019
Temperature: 28.0°C (82°F)
Dewpoint: 27.0°C (81°F) [RH = 94%]
Pressure (altimeter): 29.82 inches Hg (1010.0 mb)
Winds: from the SSW (200 degrees) at 8 MPH (7 knots; 3.6 m/s)
Visibility: 6 or more miles (10+ km)
Ceiling: 16000 feet AGL
Clouds: few clouds at 600 feet AGL
broken clouds at 16000 feet AGL
Weather: no significant weather observed at this time

METAR text: ROIG 170900Z 20006KT 9999 FEW006 SCT014 BKN070 28/27 Q1009
Conditions at: ROIG (ISHIGAKIJIMA ISL, JP) observed 0900 UTC 17 June 2019
Temperature: 28.0°C (82°F)
Dewpoint: 27.0°C (81°F) [RH = 94%]
Pressure (altimeter): 29.79 inches Hg (1009.0 mb)
Winds: from the SSW (200 degrees) at 7 MPH (6 knots; 3.1 m/s)
Visibility: 6 or more miles (10+ km)
Ceiling: 7000 feet AGL
Clouds: few clouds at 600 feet AGL
scattered clouds at 1400 feet AGL
broken clouds at 7000 feet AGL
Weather: no significant weather observed at this time

METAR text: ROIG 170800Z 20008KT 9999 -SHRA SCT007 BKN013 BKN/// 28/27 Q1009
Conditions at: ROIG (ISHIGAKIJIMA ISL, JP) observed 0800 UTC 17 June 2019
Temperature: 28.0°C (82°F)
Dewpoint: 27.0°C (81°F) [RH = 94%]
Pressure (altimeter): 29.79 inches Hg (1009.0 mb)
Winds: from the SSW (200 degrees) at 9 MPH (8 knots; 4.1 m/s)
Visibility: 6 or more miles (10+ km)
Ceiling: 1300 feet AGL
Clouds: scattered clouds at 700 feet AGL
broken clouds at 1300 feet AGL
Weather: -SHRA  (light rain showers)

METAR text: ROIG 170700Z 20010KT 160V230 9999 SCT008 BKN014 29/27 Q1009
Conditions at: ROIG (ISHIGAKIJIMA ISL, JP) observed 0700 UTC 17 June 2019
Temperature: 29.0°C (84°F)
Dewpoint: 27.0°C (81°F) [RH = 89%]
Pressure (altimeter): 29.79 inches Hg (1009.0 mb)
Winds: from the SSW (200 degrees) at 12 MPH (10 knots; 5.1 m/s)
Visibility: 6 or more miles (10+ km)
Ceiling: 1400 feet AGL
Clouds: scattered clouds at 800 feet AGL
broken clouds at 1400 feet AGL
Weather: no significant weather observed at this time

METAR text: ROIG 170600Z 19011KT 9999 SCT008 BKN013 29/27 Q1010
Conditions at: ROIG (ISHIGAKIJIMA ISL, JP) observed 0600 UTC 17 June 2019
Temperature: 29.0°C (84°F)
Dewpoint: 27.0°C (81°F) [RH = 89%]
Pressure (altimeter): 29.82 inches Hg (1010.0 mb)
Winds: from the S (190 degrees) at 13 MPH (11 knots; 5.7 m/s)
Visibility: 6 or more miles (10+ km)
Ceiling: 1300 feet AGL
Clouds: scattered clouds at 800 feet AGL
broken clouds at 1300 feet AGL
Weather: no significant weather observed at this time

METAR text: ROIG 170500Z 20009KT 9999 FEW010 BKN043 BKN/// 28/26 Q1010
Conditions at: ROIG (ISHIGAKIJIMA ISL, JP) observed 0500 UTC 17 June 2019
Temperature: 28.0°C (82°F)
Dewpoint: 26.0°C (79°F) [RH = 89%]
Pressure (altimeter): 29.82 inches Hg (1010.0 mb)
Winds: from the SSW (200 degrees) at 10 MPH (9 knots; 4.6 m/s)
Visibility: 6 or more miles (10+ km)
Ceiling: 4300 feet AGL
Clouds: few clouds at 1000 feet AGL
broken clouds at 4300 feet AGL
Weather: no significant weather observed at this time

METAR text: ROIG 170400Z 19009KT 9999 FEW009 SCT040 BKN180 28/25 Q1010
Conditions at: ROIG (ISHIGAKIJIMA ISL, JP) observed 0400 UTC 17 June 2019
Temperature: 28.0°C (82°F)
Dewpoint: 25.0°C (77°F) [RH = 84%]
Pressure (altimeter): 29.82 inches Hg (1010.0 mb)
Winds: from the S (190 degrees) at 10 MPH (9 knots; 4.6 m/s)
Visibility: 6 or more miles (10+ km)
Ceiling: 18000 feet AGL
Clouds: few clouds at 900 feet AGL
scattered clouds at 4000 feet AGL
broken clouds at 18000 feet AGL
Weather: no significant weather observed at this time

METAR text: ROIG 170300Z 18012KT 9999 FEW010 SCT070 BKN160 27/25 Q1010
Conditions at: ROIG (ISHIGAKIJIMA ISL, JP) observed 0300 UTC 17 June 2019
Temperature: 27.0°C (81°F)
Dewpoint: 25.0°C (77°F) [RH = 89%]
Pressure (altimeter): 29.82 inches Hg (1010.0 mb)
Winds: from the S (180 degrees) at 14 MPH (12 knots; 6.2 m/s)
Visibility: 6 or more miles (10+ km)
Ceiling: 16000 feet AGL
Clouds: few clouds at 1000 feet AGL
scattered clouds at 7000 feet AGL
broken clouds at 16000 feet AGL
Weather: no significant weather observed at this time

METAR text: ROIG 170200Z 20015KT 9999 -RA FEW006 SCT012 BKN050 27/25 Q1011
Conditions at: ROIG (ISHIGAKIJIMA ISL, JP) observed 0200 UTC 17 June 2019
Temperature: 27.0°C (81°F)
Dewpoint: 25.0°C (77°F) [RH = 89%]
Pressure (altimeter): 29.85 inches Hg (1011.0 mb)
Winds: from the SSW (200 degrees) at 17 MPH (15 knots; 7.7 m/s)
Visibility: 6 or more miles (10+ km)
Ceiling: 5000 feet AGL
Clouds: few clouds at 600 feet AGL
scattered clouds at 1200 feet AGL
broken clouds at 5000 feet AGL
Weather: -RA  (light rain)

METAR text: ROIG 170100Z 15009KT 9999 SCT006 BKN040 29/27 Q1010
Conditions at: ROIG (ISHIGAKIJIMA ISL, JP) observed 0100 UTC 17 June 2019
Temperature: 29.0°C (84°F)
Dewpoint: 27.0°C (81°F) [RH = 89%]
Pressure (altimeter): 29.82 inches Hg (1010.0 mb)
Winds: from the SSE (150 degrees) at 10 MPH (9 knots; 4.6 m/s)
Visibility: 6 or more miles (10+ km)
Ceiling: 4000 feet AGL
Clouds: scattered clouds at 600 feet AGL
broken clouds at 4000 feet AGL
Weather: no significant weather observed at this time

METAR text: ROIG 170000Z 14007KT 9999 SCT006 BKN035 28/26 Q1011
Conditions at: ROIG (ISHIGAKIJIMA ISL, JP) observed 0000 UTC 17 June 2019
Temperature: 28.0°C (82°F)
Dewpoint: 26.0°C (79°F) [RH = 89%]
Pressure (altimeter): 29.85 inches Hg (1011.0 mb)
Winds: from the SE (140 degrees) at 8 MPH (7 knots; 3.6 m/s)
Visibility: 6 or more miles (10+ km)
Ceiling: 3500 feet AGL
Clouds: scattered clouds at 600 feet AGL
broken clouds at 3500 feet AGL
Weather: no significant weather observed at this time

METAR text: ROIG 162300Z 14006KT 9999 FEW006 SCT020 BKN100 27/26 Q1010
Conditions at: ROIG (ISHIGAKIJIMA ISL, JP) observed 2300 UTC 16 June 2019
Temperature: 27.0°C (81°F)
Dewpoint: 26.0°C (79°F) [RH = 94%]
Pressure (altimeter): 29.82 inches Hg (1010.0 mb)
Winds: from the SE (140 degrees) at 7 MPH (6 knots; 3.1 m/s)
Visibility: 6 or more miles (10+ km)
Ceiling: 10000 feet AGL
Clouds: few clouds at 600 feet AGL
scattered clouds at 2000 feet AGL
broken clouds at 10000 feet AGL
Weather: no significant weather observed at this time

METAR text: ROIG 162200Z 13006KT 9999 SCT006 BKN020 27/26 Q1010
Conditions at: ROIG (ISHIGAKIJIMA ISL, JP) observed 2200 UTC 16 June 2019
Temperature: 27.0°C (81°F)
Dewpoint: 26.0°C (79°F) [RH = 94%]
Pressure (altimeter): 29.82 inches Hg (1010.0 mb)
Winds: from the SE (130 degrees) at 7 MPH (6 knots; 3.1 m/s)
Visibility: 6 or more miles (10+ km)
Ceiling: 2000 feet AGL
Clouds: scattered clouds at 600 feet AGL
broken clouds at 2000 feet AGL
Weather: no significant weather observed at this time

METAR text: ROIG 162100Z 13008KT 9999 VCSH FEW005 SCT012 BKN040 27/26 Q1009
Conditions at: ROIG (ISHIGAKIJIMA ISL, JP) observed 2100 UTC 16 June 2019
Temperature: 27.0°C (81°F)
Dewpoint: 26.0°C (79°F) [RH = 94%]
Pressure (altimeter): 29.79 inches Hg (1009.0 mb)
Winds: from the SE (130 degrees) at 9 MPH (8 knots; 4.1 m/s)
Visibility: 6 or more miles (10+ km)
Ceiling: 4000 feet AGL
Clouds: few clouds at 500 feet AGL
scattered clouds at 1200 feet AGL
broken clouds at 4000 feet AGL
Weather: VCSH  (showers in vicinity)

METAR text: ROIG 161100Z 11009KT 9999 VCSH FEW007 SCT100 BKN160 26/24 Q1010
Conditions at: ROIG (ISHIGAKIJIMA ISL, JP) observed 1100 UTC 16 June 2019
Temperature: 26.0°C (79°F)
Dewpoint: 24.0°C (75°F) [RH = 89%]
Pressure (altimeter): 29.82 inches Hg (1010.0 mb)
Winds: from the ESE (110 degrees) at 10 MPH (9 knots; 4.6 m/s)
Visibility: 6 or more miles (10+ km)
Ceiling: 16000 feet AGL
Clouds: few clouds at 700 feet AGL
scattered clouds at 10000 feet AGL
broken clouds at 16000 feet AGL
Weather: VCSH  (showers in vicinity)

METAR text: ROIG 161000Z 12009KT 9999 -RA FEW007 BKN050 26/24 Q1009
Conditions at: ROIG (ISHIGAKIJIMA ISL, JP) observed 1000 UTC 16 June 2019
Temperature: 26.0°C (79°F)
Dewpoint: 24.0°C (75°F) [RH = 89%]
Pressure (altimeter): 29.79 inches Hg (1009.0 mb)
Winds: from the ESE (120 degrees) at 10 MPH (9 knots; 4.6 m/s)
Visibility: 6 or more miles (10+ km)
Ceiling: 5000 feet AGL
Clouds: few clouds at 700 feet AGL
broken clouds at 5000 feet AGL
Weather: -RA  (light rain)

METAR text: ROIG 160900Z 11009KT 9999 SCT015 BKN022 BKN060 27/24 Q1009
Conditions at: ROIG (ISHIGAKIJIMA ISL, JP) observed 0900 UTC 16 June 2019
Temperature: 27.0°C (81°F)
Dewpoint: 24.0°C (75°F) [RH = 84%]
Pressure (altimeter): 29.79 inches Hg (1009.0 mb)
Winds: from the ESE (110 degrees) at 10 MPH (9 knots; 4.6 m/s)
Visibility: 6 or more miles (10+ km)
Ceiling: 2200 feet AGL
Clouds: scattered clouds at 1500 feet AGL
broken clouds at 2200 feet AGL
broken clouds at 6000 feet AGL
Weather: no significant weather observed at this time

METAR text: ROIG 160800Z 08009KT 060V130 9999 BKN019 BKN060 27/23 Q1009
Conditions at: ROIG (ISHIGAKIJIMA ISL, JP) observed 0800 UTC 16 June 2019
Temperature: 27.0°C (81°F)
Dewpoint: 23.0°C (73°F) [RH = 79%]
Pressure (altimeter): 29.79 inches Hg (1009.0 mb)
Winds: from the E (80 degrees) at 10 MPH (9 knots; 4.6 m/s)
Visibility: 6 or more miles (10+ km)
Ceiling: 1900 feet AGL
Clouds: broken clouds at 1900 feet AGL
broken clouds at 6000 feet AGL
Weather: no significant weather observed at this time

METAR text: ROIG 160700Z 09009KT 050V110 9999 FEW021 BKN060 28/23 Q1009
Conditions at: ROIG (ISHIGAKIJIMA ISL, JP) observed 0700 UTC 16 June 2019
Temperature: 28.0°C (82°F)
Dewpoint: 23.0°C (73°F) [RH = 74%]
Pressure (altimeter): 29.79 inches Hg (1009.0 mb)
Winds: from the E (90 degrees) at 10 MPH (9 knots; 4.6 m/s)
Visibility: 6 or more miles (10+ km)
Ceiling: 6000 feet AGL
Clouds: few clouds at 2100 feet AGL
broken clouds at 6000 feet AGL
Weather: no significant weather observed at this time

METAR text: ROIG 160600Z 07010KT 9999 FEW023 BKN070 28/22 Q1009
Conditions at: ROIG (ISHIGAKIJIMA ISL, JP) observed 0600 UTC 16 June 2019
Temperature: 28.0°C (82°F)
Dewpoint: 22.0°C (72°F) [RH = 70%]
Pressure (altimeter): 29.79 inches Hg (1009.0 mb)
Winds: from the ENE (70 degrees) at 12 MPH (10 knots; 5.1 m/s)
Visibility: 6 or more miles (10+ km)
Ceiling: 7000 feet AGL
Clouds: few clouds at 2300 feet AGL
broken clouds at 7000 feet AGL
Weather: no significant weather observed at this time

METAR text: ROIG 160500Z 08011KT 9999 FEW022 SCT060 BKN090 28/23 Q1009
Conditions at: ROIG (ISHIGAKIJIMA ISL, JP) observed 0500 UTC 16 June 2019
Temperature: 28.0°C (82°F)
Dewpoint: 23.0°C (73°F) [RH = 74%]
Pressure (altimeter): 29.79 inches Hg (1009.0 mb)
Winds: from the E (80 degrees) at 13 MPH (11 knots; 5.7 m/s)
Visibility: 6 or more miles (10+ km)
Ceiling: 9000 feet AGL
Clouds: few clouds at 2200 feet AGL
scattered clouds at 6000 feet AGL
broken clouds at 9000 feet AGL
Weather: no significant weather observed at this time

METAR text: ROIG 160400Z 07011KT 9999 FEW022 BKN090 28/23 Q1009
Conditions at: ROIG (ISHIGAKIJIMA ISL, JP) observed 0400 UTC 16 June 2019
Temperature: 28.0°C (82°F)
Dewpoint: 23.0°C (73°F) [RH = 74%]
Pressure (altimeter): 29.79 inches Hg (1009.0 mb)
Winds: from the ENE (70 degrees) at 13 MPH (11 knots; 5.7 m/s)
Visibility: 6 or more miles (10+ km)
Ceiling: 9000 feet AGL
Clouds: few clouds at 2200 feet AGL
broken clouds at 9000 feet AGL
Weather: no significant weather observed at this time

METAR text: ROIG 160300Z 08009KT 9999 FEW026 BKN090 27/21 Q1010
Conditions at: ROIG (ISHIGAKIJIMA ISL, JP) observed 0300 UTC 16 June 2019
Temperature: 27.0°C (81°F)
Dewpoint: 21.0°C (70°F) [RH = 70%]
Pressure (altimeter): 29.82 inches Hg (1010.0 mb)
Winds: from the E (80 degrees) at 10 MPH (9 knots; 4.6 m/s)
Visibility: 6 or more miles (10+ km)
Ceiling: 9000 feet AGL
Clouds: few clouds at 2600 feet AGL
broken clouds at 9000 feet AGL
Weather: no significant weather observed at this time

METAR text: ROIG 160200Z 07009KT 9999 FEW027 BKN100 28/22 Q1010
Conditions at: ROIG (ISHIGAKIJIMA ISL, JP) observed 0200 UTC 16 June 2019
Temperature: 28.0°C (82°F)
Dewpoint: 22.0°C (72°F) [RH = 70%]
Pressure (altimeter): 29.82 inches Hg (1010.0 mb)
Winds: from the ENE (70 degrees) at 10 MPH (9 knots; 4.6 m/s)
Visibility: 6 or more miles (10+ km)
Ceiling: 10000 feet AGL
Clouds: few clouds at 2700 feet AGL
broken clouds at 10000 feet AGL
Weather: no significant weather observed at this time

METAR text: ROIG 160100Z 06009KT 9999 FEW027 SCT100 27/21 Q1009
Conditions at: ROIG (ISHIGAKIJIMA ISL, JP) observed 0100 UTC 16 June 2019
Temperature: 27.0°C (81°F)
Dewpoint: 21.0°C (70°F) [RH = 70%]
Pressure (altimeter): 29.79 inches Hg (1009.0 mb)
Winds: from the ENE (60 degrees) at 10 MPH (9 knots; 4.6 m/s)
Visibility: 6 or more miles (10+ km)
Ceiling: at least 12,000 feet AGL
Clouds: few clouds at 2700 feet AGL
scattered clouds at 10000 feet AGL
Weather: no significant weather observed at this time

METAR text: ROIG 160000Z 07008KT 9999 FEW027 27/20 Q1009
Conditions at: ROIG (ISHIGAKIJIMA ISL, JP) observed 0000 UTC 16 June 2019
Temperature: 27.0°C (81°F)
Dewpoint: 20.0°C (68°F) [RH = 66%]
Pressure (altimeter): 29.79 inches Hg (1009.0 mb)
Winds: from the ENE (70 degrees) at 9 MPH (8 knots; 4.1 m/s)
Visibility: 6 or more miles (10+ km)
Ceiling: at least 12,000 feet AGL
Clouds: few clouds at 2700 feet AGL
Weather: no significant weather observed at this time

METAR text: ROIG 152300Z 09007KT 9999 FEW027 26/21 Q1009
Conditions at: ROIG (ISHIGAKIJIMA ISL, JP) observed 2300 UTC 15 June 2019
Temperature: 26.0°C (79°F)
Dewpoint: 21.0°C (70°F) [RH = 74%]
Pressure (altimeter): 29.79 inches Hg (1009.0 mb)
Winds: from the E (90 degrees) at 8 MPH (7 knots; 3.6 m/s)
Visibility: 6 or more miles (10+ km)
Ceiling: at least 12,000 feet AGL
Clouds: few clouds at 2700 feet AGL
Weather: no significant weather observed at this time

Forecast for: AMD
Text: TAF AMD ROIG 171022Z 1710/1812 20006KT 9999 FEW007 BKN015
Forecast period: 1000 UTC 17 June 2019 to 1200 UTC 18 June 2019
Forecast type: FROM: standard forecast or significant change
Winds: from the SSW (200 degrees) at 7 MPH (6 knots; 3.1 m/s)
Visibility: 6 or more miles 10+ km)
Ceiling: 1500 feet AGL
Clouds: few clouds at 700 feet AGL
broken clouds at 1500 feet AGL
Weather: no significant weather forecast for this period
Text: TEMPO 1710/1713 4000 TSRA FEW005 BKN008 SCT020CB
Forecast period: 1000 to 1300 UTC 17 June 2019
Forecast type: TEMPORARY: The following changes expected for less than half the time period
Visibility: 2.49 miles (4.01 km)
Ceiling: 800 feet AGL
Clouds: few clouds at 500 feet AGL
broken clouds at 800 feet AGL
scattered clouds at 2000 feet AGL
Weather: TSRA  (rain associated with thunderstorm(s))
Text: TEMPO 1713/1721 FEW005 BKN008
Forecast period: 1300 to 2100 UTC 17 June 2019
Forecast type: TEMPORARY: The following changes expected for less than half the time period
Visibility: missing
Ceiling: 800 feet AGL
Clouds: few clouds at 500 feet AGL
broken clouds at 800 feet AGL
Weather: no significant weather forecast for this period